sensor_id;sensor_type;location;lat;lon;timestamp;P1;durP1;ratioP1;P2;durP2;ratioP2
12474;SDS011;6302;42.624;23.334;2024-02-21T00:01:30;6.20;;;5.27;;
12474;SDS011;6302;42.624;23.334;2024-02-21T00:03:57;5.53;;;5.03;;
12474;SDS011;6302;42.624;23.334;2024-02-21T00:06:23;5.37;;;4.87;;
12474;SDS011;6302;42.624;23.334;2024-02-21T00:08:51;6.10;;;5.60;;
12474;SDS011;6302;42.624;23.334;2024-02-21T00:11:17;5.90;;;5.40;;
12474;SDS011;6302;42.624;23.334;2024-02-21T00:13:44;5.80;;;5.30;;
12474;SDS011;6302;42.624;23.334;2024-02-21T00:16:12;5.10;;;4.70;;
12474;SDS011;6302;42.624;23.334;2024-02-21T00:18:40;6.20;;;5.20;;
12474;SDS011;6302;42.624;23.334;2024-02-21T00:21:07;5.90;;;5.17;;
12474;SDS011;6302;42.624;23.334;2024-02-21T00:23:34;5.47;;;4.93;;
12474;SDS011;6302;42.624;23.334;2024-02-21T00:26:01;6.07;;;5.50;;
12474;SDS011;6302;42.624;23.334;2024-02-21T00:28:27;5.80;;;5.30;;
12474;SDS011;6302;42.624;23.334;2024-02-21T00:30:54;5.70;;;5.20;;
12474;SDS011;6302;42.624;23.334;2024-02-21T00:33:24;5.20;;;4.70;;
12474;SDS011;6302;42.624;23.334;2024-02-21T00:35:50;6.47;;;5.57;;
12474;SDS011;6302;42.624;23.334;2024-02-21T00:38:17;5.93;;;5.33;;
12474;SDS011;6302;42.624;23.334;2024-02-21T00:40:44;4.83;;;4.43;;
12474;SDS011;6302;42.624;23.334;2024-02-21T00:43:10;6.20;;;5.60;;
12474;SDS011;6302;42.624;23.334;2024-02-21T00:45:37;5.53;;;5.03;;
12474;SDS011;6302;42.624;23.334;2024-02-21T00:48:04;5.70;;;5.20;;
12474;SDS011;6302;42.624;23.334;2024-02-21T00:50:33;6.40;;;5.90;;
12474;SDS011;6302;42.624;23.334;2024-02-21T00:52:59;5.87;;;5.30;;
12474;SDS011;6302;42.624;23.334;2024-02-21T00:55:26;6.30;;;5.60;;
12474;SDS011;6302;42.624;23.334;2024-02-21T00:57:53;6.23;;;5.73;;
12474;SDS011;6302;42.624;23.334;2024-02-21T01:00:20;6.70;;;6.10;;
12474;SDS011;6302;42.624;23.334;2024-02-21T01:02:47;6.07;;;5.57;;
12474;SDS011;6302;42.624;23.334;2024-02-21T01:05:13;6.50;;;5.90;;
12474;SDS011;6302;42.624;23.334;2024-02-21T01:07:41;7.27;;;6.57;;
12474;SDS011;6302;42.624;23.334;2024-02-21T01:10:08;7.87;;;7.07;;
12474;SDS011;6302;42.624;23.334;2024-02-21T01:12:35;7.43;;;6.73;;
12474;SDS011;6302;42.624;23.334;2024-02-21T01:15:02;6.70;;;6.10;;
12474;SDS011;6302;42.624;23.334;2024-02-21T01:17:31;7.57;;;6.77;;
12474;SDS011;6302;42.624;23.334;2024-02-21T01:19:58;8.13;;;7.33;;
12474;SDS011;6302;42.624;23.334;2024-02-21T01:22:25;8.20;;;7.40;;
12474;SDS011;6302;42.624;23.334;2024-02-21T01:24:53;7.77;;;6.93;;
12474;SDS011;6302;42.624;23.334;2024-02-21T01:27:19;7.00;;;6.30;;
12474;SDS011;6302;42.624;23.334;2024-02-21T01:29:47;7.37;;;6.63;;
12474;SDS011;6302;42.624;23.334;2024-02-21T01:32:14;7.17;;;6.47;;
12474;SDS011;6302;42.624;23.334;2024-02-21T01:34:41;7.57;;;6.87;;
12474;SDS011;6302;42.624;23.334;2024-02-21T01:37:08;7.23;;;6.53;;
12474;SDS011;6302;42.624;23.334;2024-02-21T01:39:35;8.00;;;7.20;;
12474;SDS011;6302;42.624;23.334;2024-02-21T01:42:03;7.70;;;6.90;;
12474;SDS011;6302;42.624;23.334;2024-02-21T01:44:30;7.67;;;6.90;;
12474;SDS011;6302;42.624;23.334;2024-02-21T01:46:57;8.87;;;7.97;;
12474;SDS011;6302;42.624;23.334;2024-02-21T01:49:24;10.07;;;8.83;;
12474;SDS011;6302;42.624;23.334;2024-02-21T01:51:51;10.67;;;8.57;;
12474;SDS011;6302;42.624;23.334;2024-02-21T01:54:19;10.70;;;9.60;;
12474;SDS011;6302;42.624;23.334;2024-02-21T01:56:46;10.47;;;9.23;;
12474;SDS011;6302;42.624;23.334;2024-02-21T01:59:15;11.73;;;10.43;;
12474;SDS011;6302;42.624;23.334;2024-02-21T02:01:43;11.57;;;9.83;;
12474;SDS011;6302;42.624;23.334;2024-02-21T02:04:12;11.40;;;9.47;;
12474;SDS011;6302;42.624;23.334;2024-02-21T02:06:39;13.60;;;10.07;;
12474;SDS011;6302;42.624;23.334;2024-02-21T02:09:07;11.60;;;9.27;;
12474;SDS011;6302;42.624;23.334;2024-02-21T02:11:33;12.33;;;10.57;;
12474;SDS011;6302;42.624;23.334;2024-02-21T02:14:01;12.43;;;10.83;;
12474;SDS011;6302;42.624;23.334;2024-02-21T02:16:29;11.57;;;10.37;;
12474;SDS011;6302;42.624;23.334;2024-02-21T02:18:56;11.87;;;10.37;;
12474;SDS011;6302;42.624;23.334;2024-02-21T02:21:23;12.23;;;10.53;;
12474;SDS011;6302;42.624;23.334;2024-02-21T02:23:54;13.57;;;11.30;;
12474;SDS011;6302;42.624;23.334;2024-02-21T02:26:21;12.90;;;11.60;;
12474;SDS011;6302;42.624;23.334;2024-02-21T02:28:48;12.67;;;10.70;;
12474;SDS011;6302;42.624;23.334;2024-02-21T02:31:15;12.27;;;11.07;;
12474;SDS011;6302;42.624;23.334;2024-02-21T02:33:42;12.43;;;10.67;;
12474;SDS011;6302;42.624;23.334;2024-02-21T02:36:09;13.30;;;11.27;;
12474;SDS011;6302;42.624;23.334;2024-02-21T02:38:36;13.87;;;11.50;;
12474;SDS011;6302;42.624;23.334;2024-02-21T02:41:04;15.23;;;11.50;;
12474;SDS011;6302;42.624;23.334;2024-02-21T02:43:31;12.10;;;10.53;;
12474;SDS011;6302;42.624;23.334;2024-02-21T02:45:58;11.93;;;10.67;;
12474;SDS011;6302;42.624;23.334;2024-02-21T02:48:24;12.43;;;11.13;;
12474;SDS011;6302;42.624;23.334;2024-02-21T02:50:51;12.43;;;11.13;;
12474;SDS011;6302;42.624;23.334;2024-02-21T02:53:18;14.93;;;11.80;;
12474;SDS011;6302;42.624;23.334;2024-02-21T02:55:45;14.80;;;12.73;;
12474;SDS011;6302;42.624;23.334;2024-02-21T02:58:13;13.10;;;11.43;;
12474;SDS011;6302;42.624;23.334;2024-02-21T03:00:39;13.47;;;12.03;;
12474;SDS011;6302;42.624;23.334;2024-02-21T03:03:06;13.90;;;11.27;;
12474;SDS011;6302;42.624;23.334;2024-02-21T03:05:34;12.80;;;11.47;;
12474;SDS011;6302;42.624;23.334;2024-02-21T03:08:01;13.93;;;12.53;;
12474;SDS011;6302;42.624;23.334;2024-02-21T03:10:32;12.87;;;11.50;;
12474;SDS011;6302;42.624;23.334;2024-02-21T03:12:58;14.43;;;12.20;;
12474;SDS011;6302;42.624;23.334;2024-02-21T03:15:27;13.10;;;11.40;;
12474;SDS011;6302;42.624;23.334;2024-02-21T03:17:53;13.40;;;12.00;;
12474;SDS011;6302;42.624;23.334;2024-02-21T03:20:20;13.40;;;11.80;;
12474;SDS011;6302;42.624;23.334;2024-02-21T03:22:47;15.90;;;12.33;;
12474;SDS011;6302;42.624;23.334;2024-02-21T03:25:13;13.20;;;11.80;;
12474;SDS011;6302;42.624;23.334;2024-02-21T03:27:40;14.13;;;12.63;;
12474;SDS011;6302;42.624;23.334;2024-02-21T03:30:07;14.67;;;11.87;;
12474;SDS011;6302;42.624;23.334;2024-02-21T03:32:36;14.87;;;12.93;;
12474;SDS011;6302;42.624;23.334;2024-02-21T03:35:04;14.93;;;12.53;;
12474;SDS011;6302;42.624;23.334;2024-02-21T03:37:31;13.40;;;12.00;;
12474;SDS011;6302;42.624;23.334;2024-02-21T03:39:58;14.00;;;12.07;;
12474;SDS011;6302;42.624;23.334;2024-02-21T03:42:24;14.07;;;11.80;;
12474;SDS011;6302;42.624;23.334;2024-02-21T03:44:51;14.37;;;11.90;;
12474;SDS011;6302;42.624;23.334;2024-02-21T03:47:18;14.83;;;12.03;;
12474;SDS011;6302;42.624;23.334;2024-02-21T03:49:46;13.63;;;12.13;;
12474;SDS011;6302;42.624;23.334;2024-02-21T03:52:13;13.37;;;11.47;;
12474;SDS011;6302;42.624;23.334;2024-02-21T03:54:39;14.63;;;12.53;;
12474;SDS011;6302;42.624;23.334;2024-02-21T03:57:06;14.50;;;13.00;;
12474;SDS011;6302;42.624;23.334;2024-02-21T03:59:33;13.57;;;12.07;;
12474;SDS011;6302;42.624;23.334;2024-02-21T04:01:58;15.23;;;12.50;;
12474;SDS011;6302;42.624;23.334;2024-02-21T04:04:25;14.83;;;12.37;;
12474;SDS011;6302;42.624;23.334;2024-02-21T04:06:53;14.37;;;12.33;;
12474;SDS011;6302;42.624;23.334;2024-02-21T04:09:20;13.83;;;11.90;;
12474;SDS011;6302;42.624;23.334;2024-02-21T04:11:47;13.63;;;11.13;;
12474;SDS011;6302;42.624;23.334;2024-02-21T04:14:13;14.43;;;12.13;;
12474;SDS011;6302;42.624;23.334;2024-02-21T04:16:40;14.13;;;12.23;;
12474;SDS011;6302;42.624;23.334;2024-02-21T04:19:07;15.00;;;12.43;;
12474;SDS011;6302;42.624;23.334;2024-02-21T04:21:34;14.33;;;12.83;;
12474;SDS011;6302;42.624;23.334;2024-02-21T04:24:03;14.87;;;13.27;;
12474;SDS011;6302;42.624;23.334;2024-02-21T04:26:30;16.57;;;13.57;;
12474;SDS011;6302;42.624;23.334;2024-02-21T04:28:57;20.90;;;15.30;;
12474;SDS011;6302;42.624;23.334;2024-02-21T04:31:24;23.53;;;16.80;;
12474;SDS011;6302;42.624;23.334;2024-02-21T04:33:50;15.83;;;13.93;;
12474;SDS011;6302;42.624;23.334;2024-02-21T04:36:17;14.60;;;12.80;;
12474;SDS011;6302;42.624;23.334;2024-02-21T04:38:44;16.47;;;13.67;;
12474;SDS011;6302;42.624;23.334;2024-02-21T04:41:12;17.13;;;13.70;;
12474;SDS011;6302;42.624;23.334;2024-02-21T04:43:39;15.47;;;12.93;;
12474;SDS011;6302;42.624;23.334;2024-02-21T04:46:06;17.00;;;13.70;;
12474;SDS011;6302;42.624;23.334;2024-02-21T04:48:33;16.40;;;14.27;;
12474;SDS011;6302;42.624;23.334;2024-02-21T04:50:59;16.07;;;13.87;;
12474;SDS011;6302;42.624;23.334;2024-02-21T04:53:26;17.77;;;14.57;;
12474;SDS011;6302;42.624;23.334;2024-02-21T04:55:53;17.93;;;15.20;;
12474;SDS011;6302;42.624;23.334;2024-02-21T04:58:21;16.97;;;14.07;;
12474;SDS011;6302;42.624;23.334;2024-02-21T05:00:47;18.67;;;15.37;;
12474;SDS011;6302;42.624;23.334;2024-02-21T05:03:14;17.13;;;14.33;;
12474;SDS011;6302;42.624;23.334;2024-02-21T05:05:41;19.03;;;15.50;;
12474;SDS011;6302;42.624;23.334;2024-02-21T05:08:09;18.07;;;15.27;;
12474;SDS011;6302;42.624;23.334;2024-02-21T05:10:36;17.10;;;14.30;;
12474;SDS011;6302;42.624;23.334;2024-02-21T05:13:03;15.27;;;13.57;;
12474;SDS011;6302;42.624;23.334;2024-02-21T05:15:31;16.00;;;14.30;;
12474;SDS011;6302;42.624;23.334;2024-02-21T05:17:58;16.83;;;14.23;;
12474;SDS011;6302;42.624;23.334;2024-02-21T05:20:26;17.53;;;15.63;;
12474;SDS011;6302;42.624;23.334;2024-02-21T05:22:52;21.30;;;18.97;;
12474;SDS011;6302;42.624;23.334;2024-02-21T05:25:19;20.07;;;16.90;;
12474;SDS011;6302;42.624;23.334;2024-02-21T05:27:46;18.23;;;15.87;;
12474;SDS011;6302;42.624;23.334;2024-02-21T05:30:13;17.47;;;14.73;;
12474;SDS011;6302;42.624;23.334;2024-02-21T05:32:41;14.67;;;13.10;;
12474;SDS011;6302;42.624;23.334;2024-02-21T05:35:08;15.93;;;13.70;;
12474;SDS011;6302;42.624;23.334;2024-02-21T05:37:35;14.53;;;12.97;;
12474;SDS011;6302;42.624;23.334;2024-02-21T05:40:02;15.13;;;13.53;;
12474;SDS011;6302;42.624;23.334;2024-02-21T05:42:29;16.37;;;12.97;;
12474;SDS011;6302;42.624;23.334;2024-02-21T05:44:56;15.90;;;12.70;;
12474;SDS011;6302;42.624;23.334;2024-02-21T05:47:25;14.70;;;13.10;;
12474;SDS011;6302;42.624;23.334;2024-02-21T05:49:53;14.00;;;12.50;;
12474;SDS011;6302;42.624;23.334;2024-02-21T05:52:20;15.00;;;12.70;;
12474;SDS011;6302;42.624;23.334;2024-02-21T05:54:48;15.00;;;11.77;;
12474;SDS011;6302;42.624;23.334;2024-02-21T05:57:16;15.60;;;12.17;;
12474;SDS011;6302;42.624;23.334;2024-02-21T05:59:43;13.87;;;11.50;;
12474;SDS011;6302;42.624;23.334;2024-02-21T06:02:10;14.83;;;12.13;;
12474;SDS011;6302;42.624;23.334;2024-02-21T06:04:38;15.23;;;12.50;;
12474;SDS011;6302;42.624;23.334;2024-02-21T06:07:06;18.70;;;13.60;;
12474;SDS011;6302;42.624;23.334;2024-02-21T06:09:33;15.63;;;13.10;;
12474;SDS011;6302;42.624;23.334;2024-02-21T06:12:00;14.63;;;12.97;;
12474;SDS011;6302;42.624;23.334;2024-02-21T06:14:26;14.70;;;12.50;;
12474;SDS011;6302;42.624;23.334;2024-02-21T06:16:53;13.93;;;12.43;;
12474;SDS011;6302;42.624;23.334;2024-02-21T06:19:20;14.37;;;12.07;;
12474;SDS011;6302;42.624;23.334;2024-02-21T06:21:47;15.50;;;12.90;;
12474;SDS011;6302;42.624;23.334;2024-02-21T06:24:15;17.00;;;13.67;;
12474;SDS011;6302;42.624;23.334;2024-02-21T06:26:42;16.40;;;12.53;;
12474;SDS011;6302;42.624;23.334;2024-02-21T06:29:08;16.30;;;13.77;;
12474;SDS011;6302;42.624;23.334;2024-02-21T06:31:35;18.83;;;14.60;;
12474;SDS011;6302;42.624;23.334;2024-02-21T06:34:02;16.27;;;13.73;;
12474;SDS011;6302;42.624;23.334;2024-02-21T06:36:29;14.43;;;12.93;;
12474;SDS011;6302;42.624;23.334;2024-02-21T06:38:56;19.37;;;13.53;;
12474;SDS011;6302;42.624;23.334;2024-02-21T06:41:24;16.03;;;13.07;;
12474;SDS011;6302;42.624;23.334;2024-02-21T06:43:51;16.80;;;13.20;;
12474;SDS011;6302;42.624;23.334;2024-02-21T06:46:24;15.07;;;13.30;;
12474;SDS011;6302;42.624;23.334;2024-02-21T06:48:51;16.07;;;13.17;;
12474;SDS011;6302;42.624;23.334;2024-02-21T06:51:18;15.13;;;13.30;;
12474;SDS011;6302;42.624;23.334;2024-02-21T06:53:45;14.93;;;13.03;;
12474;SDS011;6302;42.624;23.334;2024-02-21T06:56:12;14.87;;;12.70;;
12474;SDS011;6302;42.624;23.334;2024-02-21T06:58:40;17.17;;;14.43;;
12474;SDS011;6302;42.624;23.334;2024-02-21T07:01:07;20.83;;;15.50;;
12474;SDS011;6302;42.624;23.334;2024-02-21T07:03:34;16.20;;;13.60;;
12474;SDS011;6302;42.624;23.334;2024-02-21T07:06:01;18.07;;;14.77;;
12474;SDS011;6302;42.624;23.334;2024-02-21T07:08:28;17.43;;;13.67;;
12474;SDS011;6302;42.624;23.334;2024-02-21T07:10:55;16.87;;;13.57;;
12474;SDS011;6302;42.624;23.334;2024-02-21T07:13:22;19.07;;;14.57;;
12474;SDS011;6302;42.624;23.334;2024-02-21T07:15:50;18.03;;;13.93;;
12474;SDS011;6302;42.624;23.334;2024-02-21T07:18:17;15.90;;;13.63;;
12474;SDS011;6302;42.624;23.334;2024-02-21T07:20:43;16.43;;;13.87;;
12474;SDS011;6302;42.624;23.334;2024-02-21T07:23:10;19.37;;;14.77;;
12474;SDS011;6302;42.624;23.334;2024-02-21T07:25:37;19.17;;;14.20;;
12474;SDS011;6302;42.624;23.334;2024-02-21T07:28:04;20.70;;;14.53;;
12474;SDS011;6302;42.624;23.334;2024-02-21T07:30:31;18.00;;;14.37;;
12474;SDS011;6302;42.624;23.334;2024-02-21T07:32:59;21.47;;;14.57;;
12474;SDS011;6302;42.624;23.334;2024-02-21T07:35:26;18.00;;;14.70;;
12474;SDS011;6302;42.624;23.334;2024-02-21T07:37:53;19.23;;;15.63;;
12474;SDS011;6302;42.624;23.334;2024-02-21T07:40:20;20.53;;;15.50;;
12474;SDS011;6302;42.624;23.334;2024-02-21T07:42:46;20.10;;;15.57;;
12474;SDS011;6302;42.624;23.334;2024-02-21T07:45:13;21.90;;;14.93;;
12474;SDS011;6302;42.624;23.334;2024-02-21T07:47:40;20.80;;;14.37;;
12474;SDS011;6302;42.624;23.334;2024-02-21T07:50:08;19.00;;;14.67;;
12474;SDS011;6302;42.624;23.334;2024-02-21T07:52:35;19.57;;;14.67;;
12474;SDS011;6302;42.624;23.334;2024-02-21T07:55:02;22.80;;;15.37;;
12474;SDS011;6302;42.624;23.334;2024-02-21T07:57:29;16.17;;;13.83;;
12474;SDS011;6302;42.624;23.334;2024-02-21T07:59:56;17.50;;;14.47;;
12474;SDS011;6302;42.624;23.334;2024-02-21T08:02:23;17.03;;;14.70;;
12474;SDS011;6302;42.624;23.334;2024-02-21T08:04:50;20.57;;;15.23;;
12474;SDS011;6302;42.624;23.334;2024-02-21T08:07:18;19.13;;;13.97;;
12474;SDS011;6302;42.624;23.334;2024-02-21T08:09:45;18.90;;;15.40;;
12474;SDS011;6302;42.624;23.334;2024-02-21T08:12:11;26.07;;;19.27;;
12474;SDS011;6302;42.624;23.334;2024-02-21T08:14:38;21.40;;;16.47;;
12474;SDS011;6302;42.624;23.334;2024-02-21T08:17:05;20.27;;;15.57;;
12474;SDS011;6302;42.624;23.334;2024-02-21T08:19:32;18.63;;;14.87;;
12474;SDS011;6302;42.624;23.334;2024-02-21T08:21:58;16.97;;;14.27;;
12474;SDS011;6302;42.624;23.334;2024-02-21T08:24:27;18.70;;;15.33;;
12474;SDS011;6302;42.624;23.334;2024-02-21T08:26:53;18.83;;;15.00;;
12474;SDS011;6302;42.624;23.334;2024-02-21T08:29:20;17.80;;;15.17;;
12474;SDS011;6302;42.624;23.334;2024-02-21T08:31:47;15.63;;;13.50;;
12474;SDS011;6302;42.624;23.334;2024-02-21T08:34:14;16.97;;;13.00;;
12474;SDS011;6302;42.624;23.334;2024-02-21T08:36:41;18.07;;;13.23;;
12474;SDS011;6302;42.624;23.334;2024-02-21T08:39:07;15.53;;;13.00;;
12474;SDS011;6302;42.624;23.334;2024-02-21T08:41:37;19.00;;;15.00;;
12474;SDS011;6302;42.624;23.334;2024-02-21T08:44:04;13.07;;;11.10;;
12474;SDS011;6302;42.624;23.334;2024-02-21T08:46:31;12.33;;;9.73;;
12474;SDS011;6302;42.624;23.334;2024-02-21T08:48:57;16.80;;;12.63;;
12474;SDS011;6302;42.624;23.334;2024-02-21T08:51:24;14.20;;;10.03;;
12474;SDS011;6302;42.624;23.334;2024-02-21T08:53:51;13.50;;;10.33;;
12474;SDS011;6302;42.624;23.334;2024-02-21T08:56:18;11.73;;;10.53;;
12474;SDS011;6302;42.624;23.334;2024-02-21T08:58:47;10.87;;;9.77;;
12474;SDS011;6302;42.624;23.334;2024-02-21T09:01:13;13.87;;;10.50;;
12474;SDS011;6302;42.624;23.334;2024-02-21T09:03:40;10.53;;;9.43;;
12474;SDS011;6302;42.624;23.334;2024-02-21T09:06:07;11.07;;;9.90;;
12474;SDS011;6302;42.624;23.334;2024-02-21T09:08:35;14.37;;;10.43;;
12474;SDS011;6302;42.624;23.334;2024-02-21T09:11:05;11.60;;;10.50;;
12474;SDS011;6302;42.624;23.334;2024-02-21T09:13:32;12.27;;;11.00;;
12474;SDS011;6302;42.624;23.334;2024-02-21T09:16:00;13.03;;;10.20;;
12474;SDS011;6302;42.624;23.334;2024-02-21T09:18:28;11.93;;;10.73;;
12474;SDS011;6302;42.624;23.334;2024-02-21T09:20:54;11.10;;;10.00;;
12474;SDS011;6302;42.624;23.334;2024-02-21T09:23:23;12.97;;;10.63;;
12474;SDS011;6302;42.624;23.334;2024-02-21T09:25:50;10.43;;;9.40;;
12474;SDS011;6302;42.624;23.334;2024-02-21T09:28:17;11.80;;;9.93;;
12474;SDS011;6302;42.624;23.334;2024-02-21T09:30:44;13.00;;;10.47;;
12474;SDS011;6302;42.624;23.334;2024-02-21T09:33:12;11.57;;;10.40;;
12474;SDS011;6302;42.624;23.334;2024-02-21T09:35:39;12.50;;;11.20;;
12474;SDS011;6302;42.624;23.334;2024-02-21T09:38:06;13.63;;;10.07;;
12474;SDS011;6302;42.624;23.334;2024-02-21T09:40:33;11.13;;;9.93;;
12474;SDS011;6302;42.624;23.334;2024-02-21T09:43:04;10.73;;;9.70;;
12474;SDS011;6302;42.624;23.334;2024-02-21T09:45:32;11.37;;;10.17;;
12474;SDS011;6302;42.624;23.334;2024-02-21T09:48:10;14.27;;;10.03;;
12474;SDS011;6302;42.624;23.334;2024-02-21T09:50:52;12.23;;;10.77;;
12474;SDS011;6302;42.624;23.334;2024-02-21T09:53:21;12.57;;;10.73;;
12474;SDS011;6302;42.624;23.334;2024-02-21T09:55:50;12.70;;;10.30;;
12474;SDS011;6302;42.624;23.334;2024-02-21T09:58:18;10.07;;;9.07;;
12474;SDS011;6302;42.624;23.334;2024-02-21T10:00:45;10.13;;;9.13;;
12474;SDS011;6302;42.624;23.334;2024-02-21T10:03:12;10.23;;;9.20;;
12474;SDS011;6302;42.624;23.334;2024-02-21T10:05:45;11.83;;;10.63;;
12474;SDS011;6302;42.624;23.334;2024-02-21T10:08:15;13.67;;;10.80;;
12474;SDS011;6302;42.624;23.334;2024-02-21T10:10:42;12.87;;;11.47;;
12474;SDS011;6302;42.624;23.334;2024-02-21T10:13:09;13.13;;;11.83;;
12474;SDS011;6302;42.624;23.334;2024-02-21T10:15:36;11.23;;;10.23;;
12474;SDS011;6302;42.624;23.334;2024-02-21T10:18:03;11.03;;;9.93;;
12474;SDS011;6302;42.624;23.334;2024-02-21T10:20:31;9.97;;;9.03;;
12474;SDS011;6302;42.624;23.334;2024-02-21T10:23:03;10.40;;;9.30;;
12474;SDS011;6302;42.624;23.334;2024-02-21T10:25:33;9.00;;;8.10;;
12474;SDS011;6302;42.624;23.334;2024-02-21T10:28:03;8.97;;;7.83;;
12474;SDS011;6302;42.624;23.334;2024-02-21T10:30:30;8.57;;;7.70;;
12474;SDS011;6302;42.624;23.334;2024-02-21T10:32:57;8.70;;;7.90;;
12474;SDS011;6302;42.624;23.334;2024-02-21T10:35:27;8.43;;;7.57;;
12474;SDS011;6302;42.624;23.334;2024-02-21T10:37:54;7.93;;;7.13;;
12474;SDS011;6302;42.624;23.334;2024-02-21T10:40:24;8.27;;;7.40;;
12474;SDS011;6302;42.624;23.334;2024-02-21T10:42:54;8.67;;;7.87;;
12474;SDS011;6302;42.624;23.334;2024-02-21T10:45:24;9.27;;;8.37;;
12474;SDS011;6302;42.624;23.334;2024-02-21T10:47:57;8.33;;;7.53;;
12474;SDS011;6302;42.624;23.334;2024-02-21T10:50:32;7.93;;;7.13;;
12474;SDS011;6302;42.624;23.334;2024-02-21T10:53:08;7.93;;;7.13;;
12474;SDS011;6302;42.624;23.334;2024-02-21T10:55:53;7.70;;;6.90;;
12474;SDS011;6302;42.624;23.334;2024-02-21T10:58:25;7.00;;;6.40;;
12474;SDS011;6302;42.624;23.334;2024-02-21T11:00:53;7.60;;;6.90;;
12474;SDS011;6302;42.624;23.334;2024-02-21T11:03:20;8.90;;;7.70;;
12474;SDS011;6302;42.624;23.334;2024-02-21T11:05:50;7.63;;;6.90;;
12474;SDS011;6302;42.624;23.334;2024-02-21T11:08:20;8.60;;;7.73;;
12474;SDS011;6302;42.624;23.334;2024-02-21T11:10:47;8.27;;;7.47;;
12474;SDS011;6302;42.624;23.334;2024-02-21T11:13:15;8.13;;;7.30;;
12474;SDS011;6302;42.624;23.334;2024-02-21T11:15:42;7.43;;;6.40;;
12474;SDS011;6302;42.624;23.334;2024-02-21T11:18:09;6.60;;;6.00;;
12474;SDS011;6302;42.624;23.334;2024-02-21T11:20:36;7.90;;;5.73;;
12474;SDS011;6302;42.624;23.334;2024-02-21T11:23:04;6.17;;;5.67;;
12474;SDS011;6302;42.624;23.334;2024-02-21T11:25:30;6.17;;;5.53;;
12474;SDS011;6302;42.624;23.334;2024-02-21T11:27:59;6.23;;;5.63;;
12474;SDS011;6302;42.624;23.334;2024-02-21T11:30:29;8.93;;;7.07;;
12474;SDS011;6302;42.624;23.334;2024-02-21T11:33:01;7.70;;;6.90;;
12474;SDS011;6302;42.624;23.334;2024-02-21T11:35:30;6.77;;;6.07;;
12474;SDS011;6302;42.624;23.334;2024-02-21T11:38:07;7.03;;;6.43;;
12474;SDS011;6302;42.624;23.334;2024-02-21T11:40:35;6.17;;;5.50;;
12474;SDS011;6302;42.624;23.334;2024-02-21T11:43:01;6.37;;;5.77;;
12474;SDS011;6302;42.624;23.334;2024-02-21T11:45:30;6.73;;;6.13;;
12474;SDS011;6302;42.624;23.334;2024-02-21T11:47:57;5.70;;;5.20;;
12474;SDS011;6302;42.624;23.334;2024-02-21T11:50:25;6.53;;;5.90;;
12474;SDS011;6302;42.624;23.334;2024-02-21T11:52:54;5.73;;;5.23;;
12474;SDS011;6302;42.624;23.334;2024-02-21T11:55:20;6.07;;;5.50;;
12474;SDS011;6302;42.624;23.334;2024-02-21T11:57:48;6.03;;;5.20;;
12474;SDS011;6302;42.624;23.334;2024-02-21T12:00:16;6.17;;;5.47;;
12474;SDS011;6302;42.624;23.334;2024-02-21T12:02:46;7.50;;;5.90;;
12474;SDS011;6302;42.624;23.334;2024-02-21T12:05:13;5.67;;;5.20;;
12474;SDS011;6302;42.624;23.334;2024-02-21T12:07:40;6.23;;;5.63;;
12474;SDS011;6302;42.624;23.334;2024-02-21T12:10:08;8.90;;;6.90;;
12474;SDS011;6302;42.624;23.334;2024-02-21T12:12:36;5.93;;;5.43;;
12474;SDS011;6302;42.624;23.334;2024-02-21T12:15:04;6.10;;;5.43;;
12474;SDS011;6302;42.624;23.334;2024-02-21T12:17:32;8.40;;;7.50;;
12474;SDS011;6302;42.624;23.334;2024-02-21T12:20:01;6.80;;;5.87;;
12474;SDS011;6302;42.624;23.334;2024-02-21T12:22:30;5.90;;;5.40;;
12474;SDS011;6302;42.624;23.334;2024-02-21T12:24:58;7.73;;;6.93;;
12474;SDS011;6302;42.624;23.334;2024-02-21T12:27:25;8.13;;;7.33;;
12474;SDS011;6302;42.624;23.334;2024-02-21T12:29:52;7.10;;;6.40;;
12474;SDS011;6302;42.624;23.334;2024-02-21T12:32:18;6.77;;;6.07;;
12474;SDS011;6302;42.624;23.334;2024-02-21T12:34:45;6.40;;;5.90;;
12474;SDS011;6302;42.624;23.334;2024-02-21T12:37:13;7.10;;;6.40;;
12474;SDS011;6302;42.624;23.334;2024-02-21T12:39:41;8.23;;;6.30;;
12474;SDS011;6302;42.624;23.334;2024-02-21T12:42:07;7.83;;;6.50;;
12474;SDS011;6302;42.624;23.334;2024-02-21T12:44:36;6.73;;;6.13;;
12474;SDS011;6302;42.624;23.334;2024-02-21T12:47:03;7.23;;;6.50;;
12474;SDS011;6302;42.624;23.334;2024-02-21T12:49:30;6.77;;;5.77;;
12474;SDS011;6302;42.624;23.334;2024-02-21T12:51:57;7.73;;;6.43;;
12474;SDS011;6302;42.624;23.334;2024-02-21T12:54:25;7.97;;;7.17;;
12474;SDS011;6302;42.624;23.334;2024-02-21T12:56:52;7.10;;;6.50;;
12474;SDS011;6302;42.624;23.334;2024-02-21T12:59:19;7.30;;;6.60;;
12474;SDS011;6302;42.624;23.334;2024-02-21T13:01:46;7.83;;;6.20;;
12474;SDS011;6302;42.624;23.334;2024-02-21T13:04:12;7.70;;;6.57;;
12474;SDS011;6302;42.624;23.334;2024-02-21T13:06:39;6.87;;;6.17;;
12474;SDS011;6302;42.624;23.334;2024-02-21T13:09:06;8.20;;;6.40;;
12474;SDS011;6302;42.624;23.334;2024-02-21T13:11:37;5.00;;;4.27;;
12474;SDS011;6302;42.624;23.334;2024-02-21T13:14:04;6.50;;;4.60;;
12474;SDS011;6302;42.624;23.334;2024-02-21T13:16:30;5.10;;;4.60;;
12474;SDS011;6302;42.624;23.334;2024-02-21T13:18:59;4.57;;;4.17;;
12474;SDS011;6302;42.624;23.334;2024-02-21T13:21:26;3.50;;;3.20;;
12474;SDS011;6302;42.624;23.334;2024-02-21T13:23:52;4.80;;;4.40;;
12474;SDS011;6302;42.624;23.334;2024-02-21T13:26:19;4.93;;;4.53;;
12474;SDS011;6302;42.624;23.334;2024-02-21T13:28:47;4.50;;;4.10;;
12474;SDS011;6302;42.624;23.334;2024-02-21T13:31:14;6.00;;;5.40;;
12474;SDS011;6302;42.624;23.334;2024-02-21T13:33:42;8.43;;;5.80;;
12474;SDS011;6302;42.624;23.334;2024-02-21T13:36:09;8.77;;;7.87;;
12474;SDS011;6302;42.624;23.334;2024-02-21T13:38:36;8.63;;;7.63;;
12474;SDS011;6302;42.624;23.334;2024-02-21T13:41:04;8.47;;;7.67;;
12474;SDS011;6302;42.624;23.334;2024-02-21T13:43:31;9.10;;;8.17;;
12474;SDS011;6302;42.624;23.334;2024-02-21T13:45:59;8.77;;;7.87;;
12474;SDS011;6302;42.624;23.334;2024-02-21T13:48:30;8.87;;;7.97;;
12474;SDS011;6302;42.624;23.334;2024-02-21T13:50:56;7.87;;;7.10;;
12474;SDS011;6302;42.624;23.334;2024-02-21T13:53:22;8.73;;;7.37;;
12474;SDS011;6302;42.624;23.334;2024-02-21T13:55:49;7.07;;;6.43;;
12474;SDS011;6302;42.624;23.334;2024-02-21T13:58:16;7.33;;;6.63;;
12474;SDS011;6302;42.624;23.334;2024-02-21T14:00:43;7.47;;;6.77;;
12474;SDS011;6302;42.624;23.334;2024-02-21T14:03:11;8.67;;;7.63;;
12474;SDS011;6302;42.624;23.334;2024-02-21T14:05:38;6.50;;;5.90;;
12474;SDS011;6302;42.624;23.334;2024-02-21T14:08:06;8.70;;;7.53;;
12474;SDS011;6302;42.624;23.334;2024-02-21T14:10:32;7.47;;;6.73;;
12474;SDS011;6302;42.624;23.334;2024-02-21T14:12:59;7.47;;;6.33;;
12474;SDS011;6302;42.624;23.334;2024-02-21T14:15:26;8.63;;;7.73;;
12474;SDS011;6302;42.624;23.334;2024-02-21T14:17:53;9.27;;;7.23;;
12474;SDS011;6302;42.624;23.334;2024-02-21T14:20:22;8.47;;;7.67;;
12474;SDS011;6302;42.624;23.334;2024-02-21T14:22:49;9.30;;;8.40;;
12474;SDS011;6302;42.624;23.334;2024-02-21T14:25:16;9.60;;;8.63;;
12474;SDS011;6302;42.624;23.334;2024-02-21T14:27:42;10.63;;;8.60;;
12474;SDS011;6302;42.624;23.334;2024-02-21T14:30:10;10.57;;;9.17;;
12474;SDS011;6302;42.624;23.334;2024-02-21T14:32:36;10.23;;;9.20;;
12474;SDS011;6302;42.624;23.334;2024-02-21T14:35:04;8.80;;;7.70;;